Time;durP1;ratioP1;P1;durP2;ratioP2;P2;SDS_P1;SDS_P2;PMS_P1;PMS_P2;Temp;Humidity;BMP_temperature;BMP_pressure;BME280_temperature;BME280_humidity;BME280_pressure;Samples;Min_cycle;Max_cycle;Signal;HPM_P1;HPM_P2
2021/05/04 00:00:26;;;;;;;;;;;;;;;;;;4974212;28;19965;-56
2021/05/04 00:02:51;;;;;;;;;;;;;;;;;;4975493;28;20373;-56
2021/05/04 00:05:16;;;;;;;;;;;;;;;;;;4975836;28;19917;-55
2021/05/04 00:07:41;;;;;;;;;;;;;;;;;;4974352;28;19914;-54
2021/05/04 00:10:07;;;;;;;;;;;;;;;;;;4975714;28;19917;-57
2021/05/04 00:12:32;;;;;;;;;;;;;;;;;;4973056;28;19914;-57
2021/05/04 00:14:57;;;;;;;;;;;;;;;;;;4958156;28;20012;-57
2021/05/04 00:17:23;;;;;;;;;;;;;;;;;;4975270;28;20052;-57
2021/05/04 00:19:48;;;;;;;;;;;;;;;;;;4975728;28;19957;-57
2021/05/04 00:22:13;;;;;;;;;;;;;;;;;;4974413;28;19910;-56
2021/05/04 00:24:38;;;;;;;;;;;;;;;;;;4975247;28;19910;-57
2021/05/04 00:27:04;;;;;;;;;;;;;;;;;;4975441;28;19978;-57
2021/05/04 00:29:29;;;;;;;;;;;;;;;;;;4973843;28;20002;-56
2021/05/04 00:31:55;;;;;;;;;;;;;;;;;;4975131;28;19917;-55
2021/05/04 00:34:20;;;;;;;;;;;;;;;;;;4975140;28;19910;-56
2021/05/04 00:36:45;;;;;;;;;;;;;;;;;;4974957;28;20343;-56
2021/05/04 00:39:10;;;;;;;;;;;;;;;;;;4957428;28;20389;-56
2021/05/04 00:41:35;;;;;;;;;;;;;;;;;;4974814;28;19918;-56
2021/05/04 00:44:01;;;;;;;;;;;;;;;;;;4957759;28;19914;-57
2021/05/04 00:46:26;;;;;;;;;;;;;;;;;;4974908;28;19910;-56
2021/05/04 00:48:51;;;;;;;;;;;;;;;;;;4974519;28;19914;-56
2021/05/04 00:51:16;;;;;;;;;;;;;;;;;;4974221;28;19910;-58
2021/05/04 00:53:42;;;;;;;;;;;;;;;;;;4974817;28;19913;-57
2021/05/04 00:56:07;;;;;;;;;;;;;;;;;;4974818;28;20204;-57
2021/05/04 00:58:33;;;;;;;;;;;;;;;;;;4957044;28;20282;-56
2021/05/04 01:00:58;;;;;;;;;;;;;;;;;;4974522;28;19914;-55
2021/05/04 01:03:23;;;;;;;;;;;;;;;;;;4974619;28;19964;-57
2021/05/04 01:05:48;;;;;;;;;;;;;;;;;;4973576;28;19913;-54
2021/05/04 01:08:14;;;;;;;;;;;;;;;;;;4974705;28;19910;-55
2021/05/04 01:10:39;;;;;;;;;;;;;;;;;;4974460;28;19910;-53
2021/05/04 01:13:04;;;;;;;;;;;;;;;;;;4974920;28;19917;-54
2021/05/04 01:15:29;;;;;;;;;;;;;;;;;;4973190;28;20028;-54
2021/05/04 01:17:55;;;;;;;;;;;;;;;;;;4973978;28;20012;-56
2021/05/04 01:20:20;;;;;;;;;;;;;;;;;;4973308;28;19926;-53
2021/05/04 01:22:45;;;;;;;;;;;;;;;;;;4956738;28;20400;-54
2021/05/04 01:25:10;;;;;;;;;;;;;;;;;;4972223;28;19910;-55
2021/05/04 01:27:36;;;;;;;;;;;;;;;;;;4974681;28;19910;-54
2021/05/04 01:30:01;;;;;;;;;;;;;;;;;;4974709;28;20005;-56
2021/05/04 01:32:26;;;;;;;;;;;;;;;;;;4974136;28;20286;-54
2021/05/04 01:34:52;;;;;;;;;;;;;;;;;;4972678;28;19910;-54
2021/05/04 01:37:17;;;;;;;;;;;;;;;;;;4974200;28;19910;-59
2021/05/04 01:39:42;;;;;;;;;;;;;;;;;;4956330;28;20277;-56
2021/05/04 01:42:07;;;;;;;;;;;;;;;;;;4973015;28;19961;-55
2021/05/04 01:44:33;;;;;;;;;;;;;;;;;;4973953;28;19914;-54
2021/05/04 01:46:58;;;;;;;;;;;;;;;;;;4972380;28;19936;-55
2021/05/04 01:49:23;;;;;;;;;;;;;;;;;;4972021;28;20020;-56
2021/05/04 01:51:49;;;;;;;;;;;;;;;;;;4973142;28;20009;-57
2021/05/04 01:54:14;;;;;;;;;;;;;;;;;;4972001;28;19956;-56
2021/05/04 01:56:39;;;;;;;;;;;;;;;;;;4955558;28;19918;-53
2021/05/04 01:59:06;;;;;;;;;;;;;;;;;;4971743;28;19922;-56
2021/05/04 02:01:31;;;;;;;;;;;;;;;;;;4972950;28;19906;-54
2021/05/04 02:03:56;;;;;;;;;;;;;;;;;;4972559;28;19910;-57
2021/05/04 02:06:21;;;;;;;;;;;;;;;;;;4973285;28;20366;-56
2021/05/04 02:08:47;;;;;;;;;;;;;;;;;;4972311;28;19993;-56
2021/05/04 02:11:12;;;;;;;;;;;;;;;;;;4972743;28;20069;-54
2021/05/04 02:13:37;;;;;;;;;;;;;;;;;;4973562;28;19910;-59
2021/05/04 02:16:03;;;;;;;;;;;;;;;;;;4972236;28;20386;-56
2021/05/04 02:18:28;;;;;;;;;;;;;;;;;;4973699;28;19982;-56
2021/05/04 02:20:53;;;;;;;;;;;;;;;;;;4973571;28;19917;-55
2021/05/04 02:23:18;;;;;;;;;;;;;;;;;;4972546;28;20286;-56
2021/05/04 02:25:43;;;;;;;;;;;;;;;;;;4973525;28;20262;-54
2021/05/04 02:28:09;;;;;;;;;;;;;;;;;;4972207;28;20314;-55
2021/05/04 02:30:34;;;;;;;;;;;;;;;;;;4974550;28;19906;-57
2021/05/04 02:32:59;;;;;;;;;;;;;;;;;;4973821;28;19914;-54
2021/05/04 02:35:24;;;;;;;;;;;;;;;;;;4974001;28;19964;-56
2021/05/04 02:37:50;;;;;;;;;;;;;;;;;;4977492;28;20382;-54
2021/05/04 02:40:15;;;;;;;;;;;;;;;;;;4976288;28;20034;-56
2021/05/04 02:42:40;;;;;;;;;;;;;;;;;;4977468;28;19910;-58
2021/05/04 02:45:05;;;;;;;;;;;;;;;;;;4976592;28;19906;-56
2021/05/04 02:47:31;;;;;;;;;;;;;;;;;;4977421;28;19956;-55
2021/05/04 02:49:56;;;;;;;;;;;;;;;;;;4960060;28;19982;-56
2021/05/04 02:52:21;;;;;;;;;;;;;;;;;;4977096;28;20396;-56
2021/05/04 02:54:46;;;;;;;;;;;;;;;;;;4976746;28;19965;-51
2021/05/04 02:57:12;;;;;;;;;;;;;;;;;;4977172;28;19921;-55
2021/05/04 02:59:37;;;;;;;;;;;;;;;;;;4977108;28;19991;-54
2021/05/04 03:02:02;;;;;;;;;;;;;;;;;;4976887;28;19917;-57
2021/05/04 03:04:27;;;;;;;;;;;;;;;;;;4975727;28;20004;-57
2021/05/04 03:06:53;;;;;;;;;;;;;;;;;;4976889;28;19910;-55
2021/05/04 03:09:18;;;;;;;;;;;;;;;;;;4976881;28;19910;-54
2021/05/04 03:11:43;;;;;;;;;;;;;;;;;;4976556;28;19910;-57
2021/05/04 03:14:09;;;;;;;;;;;;;;;;;;4976654;28;19910;-55
2021/05/04 03:16:34;;;;;;;;;;;;;;;;;;4975300;28;19906;-57
2021/05/04 03:18:59;;;;;;;;;;;;;;;;;;4976082;28;20366;-57
2021/05/04 03:21:24;;;;;;;;;;;;;;;;;;4976387;28;20610;-55
2021/05/04 03:23:50;;;;;;;;;;;;;;;;;;4974989;28;19910;-56
2021/05/04 03:26:15;;;;;;;;;;;;;;;;;;4959182;28;19909;-57
2021/05/04 03:28:40;;;;;;;;;;;;;;;;;;4958841;28;20230;-53
2021/05/04 03:31:05;;;;;;;;;;;;;;;;;;4976059;28;19910;-53
2021/05/04 03:33:31;;;;;;;;;;;;;;;;;;4975026;28;20342;-55
2021/05/04 03:35:56;;;;;;;;;;;;;;;;;;4974695;28;19996;-54
2021/05/04 03:38:21;;;;;;;;;;;;;;;;;;4974794;28;20012;-53
2021/05/04 03:40:46;;;;;;;;;;;;;;;;;;4976010;28;20060;-55
2021/05/04 03:43:12;;;;;;;;;;;;;;;;;;4974856;28;19961;-56
2021/05/04 03:45:37;;;;;;;;;;;;;;;;;;4974889;28;20200;-53
2021/05/04 03:48:02;;;;;;;;;;;;;;;;;;4974864;28;20306;-57
2021/05/04 03:50:27;;;;;;;;;;;;;;;;;;4976009;28;19960;-56
2021/05/04 03:52:53;;;;;;;;;;;;;;;;;;4975880;28;19910;-55
2021/05/04 03:55:18;;;;;;;;;;;;;;;;;;4974872;28;19910;-54
2021/05/04 03:57:44;;;;;;;;;;;;;;;;;;4974646;28;19914;-56
2021/05/04 04:00:09;;;;;;;;;;;;;;;;;;4975676;28;20346;-56
2021/05/04 04:02:34;;;;;;;;;;;;;;;;;;4975936;28;19910;-55
2021/05/04 04:04:59;;;;;;;;;;;;;;;;;;4975689;28;20253;-55
2021/05/04 04:07:25;;;;;;;;;;;;;;;;;;4975952;28;19961;-54
2021/05/04 04:09:50;;;;;;;;;;;;;;;;;;4974229;28;20460;-57
2021/05/04 04:12:15;;;;;;;;;;;;;;;;;;4974514;28;19914;-55
2021/05/04 04:14:40;;;;;;;;;;;;;;;;;;4974338;28;19910;-53
2021/05/04 04:17:06;;;;;;;;;;;;;;;;;;4975205;28;19992;-51
2021/05/04 04:19:31;;;;;;;;;;;;;;;;;;4975292;28;19925;-56
2021/05/04 04:21:56;;;;;;;;;;;;;;;;;;4957923;28;19917;-54
2021/05/04 04:24:21;;;;;;;;;;;;;;;;;;4974598;28;20014;-54
2021/05/04 04:26:47;;;;;;;;;;;;;;;;;;4975300;28;20274;-55
2021/05/04 04:29:12;;;;;;;;;;;;;;;;;;4973726;28;19926;-54
2021/05/04 04:31:38;;;;;;;;;;;;;;;;;;4958009;28;20437;-54
2021/05/04 04:34:03;;;;;;;;;;;;;;;;;;4973598;28;19996;-52
2021/05/04 04:36:28;;;;;;;;;;;;;;;;;;4975477;28;19910;-55
2021/05/04 04:38:54;;;;;;;;;;;;;;;;;;4974745;28;19918;-52
2021/05/04 04:41:19;;;;;;;;;;;;;;;;;;4973763;28;19972;-52
2021/05/04 04:43:44;;;;;;;;;;;;;;;;;;4975128;28;19907;-54
2021/05/04 04:46:09;;;;;;;;;;;;;;;;;;4973155;28;19910;-54
2021/05/04 04:48:35;;;;;;;;;;;;;;;;;;4973647;28;19910;-54
2021/05/04 04:51:00;;;;;;;;;;;;;;;;;;4974710;28;19914;-54
2021/05/04 04:53:25;;;;;;;;;;;;;;;;;;4975054;28;19910;-54
2021/05/04 04:55:51;;;;;;;;;;;;;;;;;;4973650;28;19910;-54
2021/05/04 04:58:16;;;;;;;;;;;;;;;;;;4974217;28;19925;-54
2021/05/04 05:00:41;;;;;;;;;;;;;;;;;;4974693;28;19929;-52
2021/05/04 05:03:06;;;;;;;;;;;;;;;;;;4974288;28;20347;-54
2021/05/04 05:05:32;;;;;;;;;;;;;;;;;;4973419;28;20232;-56
2021/05/04 05:07:57;;;;;;;;;;;;;;;;;;4974351;28;19969;-55
2021/05/04 05:10:22;;;;;;;;;;;;;;;;;;4974632;28;19910;-55
2021/05/04 05:12:47;;;;;;;;;;;;;;;;;;4974462;28;19910;-55
2021/05/04 05:15:14;;;;;;;;;;;;;;;;;;4973016;28;19914;-56
2021/05/04 05:17:39;;;;;;;;;;;;;;;;;;4973115;28;20381;-56
2021/05/04 05:20:04;;;;;;;;;;;;;;;;;;4973973;28;19910;-52
2021/05/04 05:22:29;;;;;;;;;;;;;;;;;;4974478;28;20325;-55
2021/05/04 05:24:55;;;;;;;;;;;;;;;;;;4974404;28;19910;-56
2021/05/04 05:27:20;;;;;;;;;;;;;;;;;;4972792;28;19910;-54
2021/05/04 05:29:45;;;;;;;;;;;;;;;;;;4974170;28;20248;-53
2021/05/04 05:32:10;;;;;;;;;;;;;;;;;;4973132;28;19910;-56
2021/05/04 05:34:36;;;;;;;;;;;;;;;;;;4973725;28;19910;-51
2021/05/04 05:37:01;;;;;;;;;;;;;;;;;;4973414;28;20083;-54
2021/05/04 05:39:26;;;;;;;;;;;;;;;;;;4972596;28;19918;-54
2021/05/04 05:41:52;;;;;;;;;;;;;;;;;;4973987;28;20365;-55
2021/05/04 05:44:17;;;;;;;;;;;;;;;;;;4973662;28;19936;-56
2021/05/04 05:46:43;;;;;;;;;;;;;;;;;;4973344;28;19910;-55
2021/05/04 05:49:09;;;;;;;;;;;;;;;;;;4971316;28;20644;-55
2021/05/04 05:51:35;;;;;;;;;;;;;;;;;;4972803;28;19910;-54
2021/05/04 05:54:00;;;;;;;;;;;;;;;;;;4972445;28;19910;-58
2021/05/04 05:56:25;;;;;;;;;;;;;;;;;;4971793;28;19917;-55
2021/05/04 05:58:50;;;;;;;;;;;;;;;;;;4972391;28;20285;-56
2021/05/04 06:01:16;;;;;;;;;;;;;;;;;;4971866;28;19910;-55
2021/05/04 06:03:41;;;;;;;;;;;;;;;;;;4973652;28;20415;-57
2021/05/04 06:06:06;;;;;;;;;;;;;;;;;;4971693;28;20267;-57
2021/05/04 06:08:31;;;;;;;;;;;;;;;;;;4973784;28;20008;-55
2021/05/04 06:10:57;;;;;;;;;;;;;;;;;;4973095;28;19910;-54
2021/05/04 06:13:22;;;;;;;;;;;;;;;;;;4971611;28;19918;-55
2021/05/04 06:15:47;;;;;;;;;;;;;;;;;;4973241;28;19920;-53
2021/05/04 06:18:12;;;;;;;;;;;;;;;;;;4971630;28;20342;-56
2021/05/04 06:20:38;;;;;;;;;;;;;;;;;;4956259;28;19918;-53
2021/05/04 06:23:03;;;;;;;;;;;;;;;;;;4973353;28;19949;-58
2021/05/04 06:25:28;;;;;;;;;;;;;;;;;;4973461;28;19910;-56
2021/05/04 06:27:54;;;;;;;;;;;;;;;;;;4973496;28;19910;-56
2021/05/04 06:30:19;;;;;;;;;;;;;;;;;;4971035;28;19918;-54
2021/05/04 06:32:46;;;;;;;;;;;;;;;;;;4971993;28;19996;-56
2021/05/04 06:35:15;;;;;;;;;;;;;;;;;;4970460;28;19953;-56
2021/05/04 06:37:40;;;;;;;;;;;;;;;;;;4971066;28;20354;-56
2021/05/04 06:40:06;;;;;;;;;;;;;;;;;;4970417;28;19918;-56
2021/05/04 06:42:31;;;;;;;;;;;;;;;;;;4972765;28;20449;-55
2021/05/04 06:44:56;;;;;;;;;;;;;;;;;;4972780;28;20341;-57
2021/05/04 06:47:21;;;;;;;;;;;;;;;;;;4972354;28;19918;-56
2021/05/04 06:49:47;;;;;;;;;;;;;;;;;;4973288;28;19917;-57
2021/05/04 06:52:12;;;;;;;;;;;;;;;;;;4971204;28;20017;-56
2021/05/04 06:54:37;;;;;;;;;;;;;;;;;;4972154;28;19927;-55
2021/05/04 06:57:02;;;;;;;;;;;;;;;;;;4970796;28;19945;-56
2021/05/04 06:59:28;;;;;;;;;;;;;;;;;;4972108;28;20413;-57
2021/05/04 07:01:53;;;;;;;;;;;;;;;;;;4971666;28;20318;-55
2021/05/04 07:04:18;;;;;;;;;;;;;;;;;;4971438;28;19909;-56
2021/05/04 07:06:44;;;;;;;;;;;;;;;;;;4971834;28;19949;-57
2021/05/04 07:09:09;;;;;;;;;;;;;;;;;;4969835;28;19910;-55
2021/05/04 07:11:34;;;;;;;;;;;;;;;;;;4970386;28;20342;-55
2021/05/04 07:14:02;;;;;;;;;;;;;;;;;;4971663;28;19910;-55
2021/05/04 07:16:27;;;;;;;;;;;;;;;;;;4970505;28;19930;-55
2021/05/04 07:18:52;;;;;;;;;;;;;;;;;;4954103;28;19923;-55
2021/05/04 07:21:18;;;;;;;;;;;;;;;;;;4971222;28;20382;-55
2021/05/04 07:23:43;;;;;;;;;;;;;;;;;;4973959;28;19981;-57
2021/05/04 07:26:10;;;;;;;;;;;;;;;;;;4966067;28;19913;-58
2021/05/04 07:28:36;;;;;;;;;;;;;;;;;;4975975;28;19964;-56
2021/05/04 07:31:01;;;;;;;;;;;;;;;;;;4954842;29;20341;-55
2021/05/04 07:33:26;;;;;;;;;;;;;;;;;;4939536;29;19918;-56
2021/05/04 07:35:52;;;;;;;;;;;;;;;;;;4956895;29;19914;-55
2021/05/04 07:38:17;;;;;;;;;;;;;;;;;;4956221;29;19918;-59
2021/05/04 07:40:42;;;;;;;;;;;;;;;;;;4956174;28;19962;-58
2021/05/04 07:43:08;;;;;;;;;;;;;;;;;;4973549;28;19920;-58
2021/05/04 07:45:33;;;;;;;;;;;;;;;;;;4973829;28;19913;-59
2021/05/04 07:48:00;;;;;;;;;;;;;;;;;;4975118;28;19921;-58
2021/05/04 07:50:25;;;;;;;;;;;;;;;;;;4975993;28;19906;-58
2021/05/04 07:52:50;;;;;;;;;;;;;;;;;;4976195;28;20278;-58
2021/05/04 07:55:15;;;;;;;;;;;;;;;;;;4975022;28;19914;-58
2021/05/04 07:57:41;;;;;;;;;;;;;;;;;;4974585;28;19909;-58
2021/05/04 08:00:06;;;;;;;;;;;;;;;;;;4973559;28;19920;-57
2021/05/04 08:02:37;;;;;;;;;;;;;;;;;;4976008;28;19910;-57
2021/05/04 08:05:02;;;;;;;;;;;;;;;;;;4975538;28;19914;-56
2021/05/04 08:07:27;;;;;;;;;;;;;;;;;;4958319;28;19917;-56
2021/05/04 08:09:54;;;;;;;;;;;;;;;;;;4975548;28;20346;-56
2021/05/04 08:12:19;;;;;;;;;;;;;;;;;;4976412;28;20259;-58
2021/05/04 08:14:45;;;;;;;;;;;;;;;;;;4980673;28;19906;-57
2021/05/04 08:17:14;;;;;;;;;;;;;;;;;;4978987;28;20016;-56
2021/05/04 08:19:39;;;;;;;;;;;;;;;;;;4976213;28;19924;-56
2021/05/04 08:22:05;;;;;;;;;;;;;;;;;;4984039;28;19922;-56
2021/05/04 08:24:30;;;;;;;;;;;;;;;;;;4963527;29;19911;-55
2021/05/04 08:26:55;;;;;;;;;;;;;;;;;;4975616;28;20384;-56
2021/05/04 08:29:21;;;;;;;;;;;;;;;;;;4974474;28;20422;-60
2021/05/04 08:31:46;;;;;;;;;;;;;;;;;;4975536;28;19973;-50
2021/05/04 08:34:11;;;;;;;;;;;;;;;;;;4979384;28;20299;-53
2021/05/04 08:36:36;;;;;;;;;;;;;;;;;;4977569;28;19949;-54
2021/05/04 08:39:02;;;;;;;;;;;;;;;;;;4982983;28;19933;-55
2021/05/04 08:41:27;;;;;;;;;;;;;;;;;;4985089;28;19993;-54
2021/05/04 08:43:52;;;;;;;;;;;;;;;;;;4980061;28;19973;-53
2021/05/04 08:46:20;;;;;;;;;;;;;;;;;;4984243;28;19909;-56
2021/05/04 08:48:45;;;;;;;;;;;;;;;;;;4957503;28;19910;-56
2021/05/04 08:51:10;;;;;;;;;;;;;;;;;;4975855;28;19925;-54
2021/05/04 08:53:35;;;;;;;;;;;;;;;;;;4982140;28;19917;-57
2021/05/04 08:56:02;;;;;;;;;;;;;;;;;;4973588;28;20334;-57
2021/05/04 08:58:27;;;;;;;;;;;;;;;;;;4973066;28;19929;-54
2021/05/04 09:00:54;;;;;;;;;;;;;;;;;;4974433;28;19926;-55
2021/05/04 09:03:23;;;;;;;;;;;;;;;;;;4973011;28;20007;-54
2021/05/04 09:05:55;;;;;;;;;;;;;;;;;;4973491;28;19910;-52
2021/05/04 09:08:21;;;;;;;;;;;;;;;;;;4972764;28;19917;-52
2021/05/04 09:10:51;;;;;;;;;;;;;;;;;;4972892;28;19921;-56
2021/05/04 09:13:20;;;;;;;;;;;;;;;;;;4972580;28;19910;-58
2021/05/04 09:18:14;;;;;;;;;;;;;;;;;;4974510;28;19925;-55
2021/05/04 09:21:00;;;;;;;;;;;;;;;;;;4974154;28;19910;-55
2021/05/04 09:23:25;;;;;;;;;;;;;;;;;;4973521;28;19910;-55
2021/05/04 09:25:53;;;;;;;;;;;;;;;;;;4973278;28;20310;-56
2021/05/04 09:28:18;;;;;;;;;;;;;;;;;;4973886;28;19910;-59
2021/05/04 09:30:43;;;;;;;;;;;;;;;;;;4972808;28;19996;-54
2021/05/04 09:33:09;;;;;;;;;;;;;;;;;;4973810;28;19949;-56
2021/05/04 09:35:34;;;;;;;;;;;;;;;;;;4972589;28;20382;-55
2021/05/04 09:37:59;;;;;;;;;;;;;;;;;;4972671;28;19910;-56
2021/05/04 09:40:25;;;;;;;;;;;;;;;;;;4972880;28;19968;-56
2021/05/04 09:42:50;;;;;;;;;;;;;;;;;;4973790;28;19910;-57
2021/05/04 09:45:15;;;;;;;;;;;;;;;;;;4973222;28;19906;-56
2021/05/04 09:47:40;;;;;;;;;;;;;;;;;;4973520;28;19910;-55
2021/05/04 09:50:06;;;;;;;;;;;;;;;;;;4972424;28;19910;-53
2021/05/04 09:54:56;;;;;;;;;;;;;;;;;;4973188;28;19910;-52
2021/05/04 09:57:21;;;;;;;;;;;;;;;;;;4973399;28;19914;-57
2021/05/04 09:59:46;;;;;;;;;;;;;;;;;;4973880;28;19917;-57
2021/05/04 10:02:12;;;;;;;;;;;;;;;;;;4972237;28;19965;-57
2021/05/04 10:04:37;;;;;;;;;;;;;;;;;;4969327;28;20382;-55
2021/05/04 10:07:02;;;;;;;;;;;;;;;;;;4964486;28;20446;-57
2021/05/04 10:09:27;;;;;;;;;;;;;;;;;;4952523;29;19966;-58
2021/05/04 10:11:53;;;;;;;;;;;;;;;;;;4954622;29;20362;-56
2021/05/04 10:14:18;;;;;;;;;;;;;;;;;;4954773;29;19910;-57
2021/05/04 10:16:43;;;;;;;;;;;;;;;;;;4954388;29;20331;-57
2021/05/04 10:19:08;;;;;;;;;;;;;;;;;;4952561;29;19922;-57
2021/05/04 10:21:34;;;;;;;;;;;;;;;;;;4954166;29;20326;-56
2021/05/04 10:23:59;;;;;;;;;;;;;;;;;;4952993;29;19910;-57
2021/05/04 10:26:25;;;;;;;;;;;;;;;;;;4954168;29;19977;-57
2021/05/04 10:28:50;;;;;;;;;;;;;;;;;;4954636;28;20044;-57
2021/05/04 10:31:16;;;;;;;;;;;;;;;;;;4954483;29;19918;-57
2021/05/04 10:33:42;;;;;;;;;;;;;;;;;;4959746;28;19933;-56
2021/05/04 10:36:07;;;;;;;;;;;;;;;;;;4971503;28;19936;-58
2021/05/04 10:38:32;;;;;;;;;;;;;;;;;;4956102;28;19922;-57
2021/05/04 10:40:58;;;;;;;;;;;;;;;;;;4964501;28;19989;-57
2021/05/04 10:43:23;;;;;;;;;;;;;;;;;;4956242;28;19918;-54
2021/05/04 10:45:49;;;;;;;;;;;;;;;;;;4974407;28;19965;-56
2021/05/04 10:48:14;;;;;;;;;;;;;;;;;;4973254;28;19913;-57
2021/05/04 10:50:39;;;;;;;;;;;;;;;;;;4972887;28;20289;-56
2021/05/04 10:53:04;;;;;;;;;;;;;;;;;;4973738;28;19917;-55
2021/05/04 10:55:31;;;;;;;;;;;;;;;;;;4971620;28;19924;-56
2021/05/04 10:57:56;;;;;;;;;;;;;;;;;;4976540;28;19918;-58
2021/05/04 11:00:21;;;;;;;;;;;;;;;;;;4977058;28;19916;-56
2021/05/04 11:02:46;;;;;;;;;;;;;;;;;;4976989;28;19910;-56
2021/05/04 11:05:12;;;;;;;;;;;;;;;;;;4976088;28;19925;-58
2021/05/04 11:07:37;;;;;;;;;;;;;;;;;;4976440;28;19906;-56
2021/05/04 11:10:02;;;;;;;;;;;;;;;;;;4976056;28;20443;-58
2021/05/04 11:12:27;;;;;;;;;;;;;;;;;;4976431;28;19910;-56
2021/05/04 11:14:52;;;;;;;;;;;;;;;;;;4976370;28;20370;-56
2021/05/04 11:17:21;;;;;;;;;;;;;;;;;;4975062;28;19910;-57
2021/05/04 11:19:46;;;;;;;;;;;;;;;;;;4976017;28;19921;-57
2021/05/04 11:22:12;;;;;;;;;;;;;;;;;;4976659;28;19914;-57
2021/05/04 11:24:37;;;;;;;;;;;;;;;;;;4975303;28;19910;-57
2021/05/04 11:27:02;;;;;;;;;;;;;;;;;;4975355;28;20009;-57
2021/05/04 11:29:27;;;;;;;;;;;;;;;;;;4976484;28;19913;-60
2021/05/04 11:31:53;;;;;;;;;;;;;;;;;;4976883;28;20008;-56
2021/05/04 11:34:18;;;;;;;;;;;;;;;;;;4976371;28;19910;-56
2021/05/04 11:36:44;;;;;;;;;;;;;;;;;;4976418;28;19917;-57
2021/05/04 11:39:09;;;;;;;;;;;;;;;;;;4976306;28;19922;-56
2021/05/04 11:41:34;;;;;;;;;;;;;;;;;;4975944;28;19933;-55
2021/05/04 11:43:59;;;;;;;;;;;;;;;;;;4976172;28;19910;-57
2021/05/04 11:46:25;;;;;;;;;;;;;;;;;;4975199;28;19917;-55
2021/05/04 11:48:50;;;;;;;;;;;;;;;;;;4975728;28;19921;-57
2021/05/04 11:51:15;;;;;;;;;;;;;;;;;;4975027;28;20298;-57
2021/05/04 11:53:40;;;;;;;;;;;;;;;;;;4976415;28;19980;-57
2021/05/04 11:56:05;;;;;;;;;;;;;;;;;;4974377;28;19914;-57
2021/05/04 11:58:31;;;;;;;;;;;;;;;;;;4975189;28;19918;-55
2021/05/04 12:00:56;;;;;;;;;;;;;;;;;;4976736;28;19993;-57
2021/05/04 12:03:21;;;;;;;;;;;;;;;;;;4975545;28;19910;-56
2021/05/04 12:05:47;;;;;;;;;;;;;;;;;;4974819;28;20366;-57
2021/05/04 12:08:12;;;;;;;;;;;;;;;;;;4975502;28;20349;-55
2021/05/04 12:10:37;;;;;;;;;;;;;;;;;;4975603;28;19921;-57
2021/05/04 12:13:03;;;;;;;;;;;;;;;;;;4976005;28;19914;-55
2021/05/04 12:15:28;;;;;;;;;;;;;;;;;;4974374;28;19906;-57
2021/05/04 12:17:53;;;;;;;;;;;;;;;;;;4974483;28;20379;-58
2021/05/04 12:20:18;;;;;;;;;;;;;;;;;;4973325;28;19961;-57
2021/05/04 12:22:44;;;;;;;;;;;;;;;;;;4974530;28;19996;-56
2021/05/04 12:25:09;;;;;;;;;;;;;;;;;;4972739;28;20340;-57
2021/05/04 12:27:34;;;;;;;;;;;;;;;;;;4973367;28;19957;-57
2021/05/04 12:29:59;;;;;;;;;;;;;;;;;;4975201;28;19969;-55
2021/05/04 12:32:25;;;;;;;;;;;;;;;;;;4973937;28;19910;-55
2021/05/04 12:34:50;;;;;;;;;;;;;;;;;;4974609;28;19920;-54
2021/05/04 12:37:16;;;;;;;;;;;;;;;;;;4974987;28;20002;-54
2021/05/04 12:39:42;;;;;;;;;;;;;;;;;;4972919;28;20016;-54
2021/05/04 12:42:07;;;;;;;;;;;;;;;;;;4974979;28;20000;-53
2021/05/04 12:44:32;;;;;;;;;;;;;;;;;;4973392;28;20042;-55
2021/05/04 12:46:59;;;;;;;;;;;;;;;;;;4973043;28;19910;-56
2021/05/04 12:49:24;;;;;;;;;;;;;;;;;;4974168;28;19997;-57
2021/05/04 12:51:50;;;;;;;;;;;;;;;;;;4974192;28;20000;-51
2021/05/04 12:54:17;;;;;;;;;;;;;;;;;;4973174;28;19997;-53
2021/05/04 12:56:43;;;;;;;;;;;;;;;;;;4974078;28;20481;-56
2021/05/04 12:59:08;;;;;;;;;;;;;;;;;;4972902;28;19922;-58
2021/05/04 13:01:33;;;;;;;;;;;;;;;;;;4974487;28;19910;-57
2021/05/04 13:04:00;;;;;;;;;;;;;;;;;;4974165;28;19906;-56
2021/05/04 13:06:29;;;;;;;;;;;;;;;;;;4973881;28;19910;-56
2021/05/04 13:08:56;;;;;;;;;;;;;;;;;;4972740;28;19910;-55
2021/05/04 13:11:22;;;;;;;;;;;;;;;;;;4956996;28;20373;-54
2021/05/04 13:14:29;;;;;;;;;;;;;;;;;;4969655;28;19986;-55
2021/05/04 13:19:37;;;;;;;;;;;;;;;;;;4972967;28;19933;-57
2021/05/04 13:30:00;;;;;;;;;;;;;;;;;;4973850;28;19917;-56
2021/05/04 13:32:26;;;;;;;;;;;;;;;;;;4973485;28;19917;-58
2021/05/04 13:35:00;;;;;;;;;;;;;;;;;;4974241;28;19910;-56
2021/05/04 13:47:49;;;;;;;;;;;;;;;;;;4972765;28;19910;-57
2021/05/04 13:50:15;;;;;;;;;;;;;;;;;;4956443;28;19910;-56
2021/05/04 13:52:41;;;;;;;;;;;;;;;;;;4956067;28;19949;-53
2021/05/04 13:55:06;;;;;;;;;;;;;;;;;;4973772;28;19909;-57
2021/05/04 13:57:33;;;;;;;;;;;;;;;;;;4974674;28;19922;-54
2021/05/04 13:59:59;;;;;;;;;;;;;;;;;;4973728;28;19933;-54
2021/05/04 14:17:11;;;;;;;;;;;;;;;;;;4973964;28;19910;-54
2021/05/04 14:26:48;;;;;;;;;;;;;;;;;;4973762;28;19910;-57
2021/05/04 14:29:14;;;;;;;;;;;;;;;;;;4972604;28;19965;-57
2021/05/04 14:31:39;;;;;;;;;;;;;;;;;;4975111;28;19949;-56
2021/05/04 14:34:04;;;;;;;;;;;;;;;;;;4979049;28;19910;-55
2021/05/04 14:57:32;;;;;;;;;;;;;;;;;;4980165;28;19906;-54
2021/05/04 15:00:22;;;;;;;;;;;;;;;;;;4980796;28;19914;-53
2021/05/04 15:02:47;;;;;;;;;;;;;;;;;;4985848;28;19906;-56
2021/05/04 15:05:14;;;;;;;;;;;;;;;;;;4988141;28;20223;-53
2021/05/04 15:07:39;;;;;;;;;;;;;;;;;;4987578;28;19909;-52
2021/05/04 15:10:05;;;;;;;;;;;;;;;;;;4981612;28;19906;-54
2021/05/04 15:12:31;;;;;;;;;;;;;;;;;;4980478;28;19996;-54
2021/05/04 15:14:58;;;;;;;;;;;;;;;;;;4980023;28;19952;-52
2021/05/04 15:17:42;;;;;;;;;;;;;;;;;;4979264;28;19956;-54
2021/05/04 15:22:52;;;;;;;;;;;;;;;;;;4977979;28;19952;-54
2021/05/04 15:25:17;;;;;;;;;;;;;;;;;;4979881;28;19910;-55
2021/05/04 15:27:42;;;;;;;;;;;;;;;;;;4978660;28;20008;-55
2021/05/04 15:30:08;;;;;;;;;;;;;;;;;;4970136;28;20319;-53
2021/05/04 15:32:43;;;;;;;;;;;;;;;;;;4971148;28;19909;-55
2021/05/04 15:35:09;;;;;;;;;;;;;;;;;;4977938;28;19906;-54
2021/05/04 15:37:35;;;;;;;;;;;;;;;;;;4969477;28;19954;-53
2021/05/04 15:40:00;;;;;;;;;;;;;;;;;;4976342;28;19920;-54
2021/05/04 15:42:26;;;;;;;;;;;;;;;;;;4976937;28;20262;-55
2021/05/04 15:44:57;;;;;;;;;;;;;;;;;;4972258;28;19910;-53
2021/05/04 15:50:19;;;;;;;;;;;;;;;;;;4975807;28;20215;-55
2021/05/04 16:03:39;;;;;;;;;;;;;;;;;;4976980;28;20401;-56
2021/05/04 16:11:20;;;;;;;;;;;;;;;;;;4967380;28;19952;-53
2021/05/04 16:13:46;;;;;;;;;;;;;;;;;;4959922;28;19925;-50
2021/05/04 16:16:12;;;;;;;;;;;;;;;;;;4976589;28;19922;-54
2021/05/04 16:18:37;;;;;;;;;;;;;;;;;;4974308;28;20417;-50
2021/05/04 16:23:36;;;;;;;;;;;;;;;;;;4976783;28;19906;-55
2021/05/04 16:28:44;;;;;;;;;;;;;;;;;;4976387;28;19906;-56
2021/05/04 16:31:10;;;;;;;;;;;;;;;;;;4975002;28;19906;-57
2021/05/04 16:33:35;;;;;;;;;;;;;;;;;;4976375;28;19994;-54
2021/05/04 16:36:00;;;;;;;;;;;;;;;;;;4975182;28;19906;-55
2021/05/04 16:38:25;;;;;;;;;;;;;;;;;;4975203;28;19917;-54
2021/05/04 16:40:51;;;;;;;;;;;;;;;;;;4975953;28;19908;-53
2021/05/04 16:43:16;;;;;;;;;;;;;;;;;;4976527;28;20382;-58
2021/05/04 16:45:44;;;;;;;;;;;;;;;;;;4980047;28;20008;-53
2021/05/04 16:48:09;;;;;;;;;;;;;;;;;;4981959;28;19914;-54
2021/05/04 16:50:34;;;;;;;;;;;;;;;;;;4978811;28;19913;-54
2021/05/04 16:53:00;;;;;;;;;;;;;;;;;;4975186;28;20006;-54
2021/05/04 16:55:25;;;;;;;;;;;;;;;;;;4978379;28;19949;-49
2021/05/04 16:57:51;;;;;;;;;;;;;;;;;;4982060;28;19910;-54
2021/05/04 17:00:21;;;;;;;;;;;;;;;;;;4976722;28;19914;-51
2021/05/04 17:02:47;;;;;;;;;;;;;;;;;;4976358;28;19913;-52
2021/05/04 17:05:15;;;;;;;;;;;;;;;;;;4975664;28;20005;-54
2021/05/04 17:07:45;;;;;;;;;;;;;;;;;;4969690;28;19906;-54
2021/05/04 17:10:23;;;;;;;;;;;;;;;;;;4954513;29;20286;-54
2021/05/04 17:12:49;;;;;;;;;;;;;;;;;;4955012;29;19906;-56
2021/05/04 17:15:15;;;;;;;;;;;;;;;;;;4955825;28;19907;-58
2021/05/04 17:17:40;;;;;;;;;;;;;;;;;;4954956;29;19906;-57
2021/05/04 17:20:05;;;;;;;;;;;;;;;;;;4955820;29;20350;-59
2021/05/04 17:22:31;;;;;;;;;;;;;;;;;;4956044;28;19917;-54
2021/05/04 17:24:56;;;;;;;;;;;;;;;;;;4955392;29;20347;-56
2021/05/04 17:27:22;;;;;;;;;;;;;;;;;;4955408;29;19941;-54
2021/05/04 17:29:47;;;;;;;;;;;;;;;;;;4955719;28;20417;-55
2021/05/04 17:32:12;;;;;;;;;;;;;;;;;;4955708;29;20009;-55
2021/05/04 17:34:38;;;;;;;;;;;;;;;;;;4955644;29;20355;-53
2021/05/04 17:37:03;;;;;;;;;;;;;;;;;;4955377;29;19906;-57
2021/05/04 17:39:28;;;;;;;;;;;;;;;;;;4955137;29;20286;-56
2021/05/04 17:41:53;;;;;;;;;;;;;;;;;;4955422;29;19914;-55
2021/05/04 17:44:19;;;;;;;;;;;;;;;;;;4955168;29;19906;-56
2021/05/04 17:46:44;;;;;;;;;;;;;;;;;;4954629;29;20041;-56
2021/05/04 17:49:09;;;;;;;;;;;;;;;;;;4954830;29;20223;-57
2021/05/04 17:51:35;;;;;;;;;;;;;;;;;;4954898;29;19945;-55
2021/05/04 17:54:00;;;;;;;;;;;;;;;;;;4954021;28;19960;-57
2021/05/04 17:56:25;;;;;;;;;;;;;;;;;;4954752;29;19907;-55
2021/05/04 17:58:50;;;;;;;;;;;;;;;;;;4954087;29;19915;-55
2021/05/04 18:01:16;;;;;;;;;;;;;;;;;;4959618;28;19913;-56
2021/05/04 18:03:45;;;;;;;;;;;;;;;;;;4974495;28;19906;-55
2021/05/04 18:06:14;;;;;;;;;;;;;;;;;;4973548;28;19952;-55
2021/05/04 18:08:40;;;;;;;;;;;;;;;;;;4974096;28;19908;-56
2021/05/04 18:11:07;;;;;;;;;;;;;;;;;;4972678;28;19906;-52